Time;durP1;ratioP1;P1;durP2;ratioP2;P2;SDS_P1;SDS_P2;PMS_P1;PMS_P2;Temp;Humidity;BMP_temperature;BMP_pressure;BME280_temperature;BME280_humidity;BME280_pressure;Samples;Min_cycle;Max_cycle;Signal;HPM_P1;HPM_P2
2022/09/12 00:01:07;;;;;;;3.20;3.00;;;11.90;99.90;;;;;;478949;248;28183;-69
2022/09/12 00:03:08;;;;;;;3.40;3.20;;;11.80;99.90;;;;;;478946;248;28216;-70
2022/09/12 00:05:09;;;;;;;3.00;2.80;;;11.70;99.90;;;;;;478912;248;28200;-67
2022/09/12 00:07:10;;;;;;;3.57;2.97;;;11.70;99.90;;;;;;478865;248;28625;-68
2022/09/12 00:09:12;;;;;;;2.70;2.60;;;11.70;99.90;;;;;;478972;248;28488;-71
2022/09/12 00:11:13;;;;;;;3.23;2.83;;;11.60;99.90;;;;;;478968;247;28310;-68
2022/09/12 00:13:14;;;;;;;3.13;2.93;;;11.60;99.90;;;;;;478951;248;28218;-69
2022/09/12 00:15:15;;;;;;;3.20;3.00;;;11.70;99.90;;;;;;478936;248;27971;-68
2022/09/12 00:17:17;;;;;;;2.77;2.60;;;11.70;99.90;;;;;;478894;248;28087;-68
2022/09/12 00:19:18;;;;;;;2.93;2.73;;;11.70;99.90;;;;;;478915;248;28112;-68
2022/09/12 00:21:19;;;;;;;2.93;2.73;;;11.70;99.90;;;;;;478967;248;27999;-68
2022/09/12 00:23:20;;;;;;;3.27;3.07;;;11.70;99.90;;;;;;478963;248;28096;-70
2022/09/12 00:25:22;;;;;;;2.90;2.70;;;11.70;99.90;;;;;;478956;248;27835;-68
2022/09/12 00:27:23;;;;;;;3.10;2.90;;;11.70;99.90;;;;;;478884;248;28015;-68
2022/09/12 00:29:24;;;;;;;2.97;2.77;;;11.60;99.90;;;;;;478864;248;28240;-71
2022/09/12 00:31:25;;;;;;;2.53;2.43;;;11.60;99.90;;;;;;478959;248;28555;-69
2022/09/12 00:33:27;;;;;;;3.07;2.87;;;11.60;99.90;;;;;;478934;246;28529;-69
2022/09/12 00:35:28;;;;;;;3.33;3.03;;;11.60;99.90;;;;;;478903;248;28476;-68
2022/09/12 00:37:30;;;;;;;3.40;3.13;;;11.60;99.90;;;;;;478835;248;28395;-68
2022/09/12 00:39:30;;;;;;;3.17;2.97;;;11.60;99.90;;;;;;478967;248;28092;-72
2022/09/12 00:41:32;;;;;;;3.80;3.50;;;11.60;99.90;;;;;;478958;248;28098;-69
2022/09/12 00:43:33;;;;;;;2.97;2.77;;;11.60;99.90;;;;;;478931;246;28161;-70
2022/09/12 00:45:34;;;;;;;3.37;3.17;;;11.50;99.90;;;;;;478958;248;27942;-68
2022/09/12 00:47:35;;;;;;;3.30;3.10;;;11.50;99.90;;;;;;478868;248;27901;-69
2022/09/12 00:49:37;;;;;;;2.93;2.73;;;11.60;99.90;;;;;;478965;248;28053;-71
2022/09/12 00:51:39;;;;;;;2.57;2.47;;;11.50;99.90;;;;;;478961;248;27922;-71
2022/09/12 00:53:40;;;;;;;2.87;2.67;;;11.50;99.90;;;;;;478938;248;27869;-68
2022/09/12 00:55:41;;;;;;;2.77;2.57;;;11.50;99.90;;;;;;478933;248;28489;-69
2022/09/12 00:57:42;;;;;;;3.13;2.93;;;11.50;99.90;;;;;;478882;248;28533;-68
2022/09/12 00:59:44;;;;;;;2.70;2.60;;;11.40;99.90;;;;;;478933;248;28581;-69
2022/09/12 01:01:45;;;;;;;3.63;3.00;;;11.40;99.90;;;;;;478947;248;28491;-72
2022/09/12 01:03:46;;;;;;;3.10;2.90;;;11.40;99.90;;;;;;478951;248;27968;-68
2022/09/12 01:05:47;;;;;;;3.57;3.27;;;11.40;99.90;;;;;;478934;248;28100;-71
2022/09/12 01:07:49;;;;;;;3.00;2.70;;;11.40;99.90;;;;;;478887;248;28024;-68
2022/09/12 01:09:50;;;;;;;2.93;2.73;;;11.40;99.90;;;;;;478934;248;28093;-69
2022/09/12 01:11:51;;;;;;;2.97;2.77;;;11.40;99.90;;;;;;478963;248;28098;-72
2022/09/12 01:13:52;;;;;;;2.87;2.67;;;11.40;99.90;;;;;;478940;248;27983;-69
2022/09/12 01:15:54;;;;;;;2.80;2.60;;;11.40;99.90;;;;;;478911;248;28009;-70
2022/09/12 01:17:55;;;;;;;3.50;3.30;;;11.40;99.90;;;;;;478863;248;27947;-67
2022/09/12 01:19:56;;;;;;;3.50;3.30;;;11.40;99.90;;;;;;478934;248;28540;-69
2022/09/12 01:21:58;;;;;;;3.00;2.80;;;11.40;99.90;;;;;;478982;248;28502;-72
2022/09/12 01:23:59;;;;;;;3.20;3.00;;;11.40;99.90;;;;;;478934;248;28590;-68
2022/09/12 01:26:00;;;;;;;3.10;2.90;;;11.40;99.90;;;;;;478928;246;27897;-70
2022/09/12 01:28:01;;;;;;;3.00;2.80;;;11.40;99.90;;;;;;478887;248;28022;-69
2022/09/12 01:30:03;;;;;;;3.70;3.23;;;11.40;99.90;;;;;;478912;248;27901;-68
2022/09/12 01:32:04;;;;;;;2.97;2.77;;;11.30;99.90;;;;;;478928;248;28029;-73
2022/09/12 01:34:05;;;;;;;5.53;3.00;;;11.30;99.90;;;;;;478954;248;27959;-69
2022/09/12 01:36:07;;;;;;;3.30;3.10;;;11.30;99.90;;;;;;478899;248;28004;-69
2022/09/12 01:38:08;;;;;;;3.40;3.20;;;11.20;99.90;;;;;;478881;248;27900;-68
2022/09/12 01:40:10;;;;;;;3.37;3.17;;;11.20;99.90;;;;;;478936;248;27988;-69
2022/09/12 01:42:10;;;;;;;3.37;3.17;;;11.20;99.90;;;;;;478862;248;27819;-72
2022/09/12 01:44:12;;;;;;;3.33;3.07;;;11.20;99.90;;;;;;478928;248;28339;-68
2022/09/12 01:46:13;;;;;;;3.70;3.40;;;11.20;99.90;;;;;;478814;248;28425;-71
2022/09/12 01:48:14;;;;;;;3.03;2.83;;;11.20;99.90;;;;;;478947;248;28327;-68
2022/09/12 01:50:15;;;;;;;2.93;2.73;;;11.20;99.90;;;;;;478944;248;27730;-69
2022/09/12 01:52:17;;;;;;;3.63;3.33;;;11.20;99.90;;;;;;478935;248;27920;-71
2022/09/12 01:54:18;;;;;;;3.17;2.97;;;11.20;99.90;;;;;;478979;246;27963;-68
2022/09/12 01:56:21;;;;;;;3.40;3.10;;;11.20;99.90;;;;;;478717;248;28046;-68
2022/09/12 01:58:23;;;;;;;3.00;2.80;;;11.30;99.90;;;;;;478867;247;27999;-69
2022/09/12 02:00:24;;;;;;;3.50;3.20;;;11.20;99.90;;;;;;478847;246;28090;-68
2022/09/12 02:02:25;;;;;;;3.00;2.80;;;11.10;99.90;;;;;;478899;248;28017;-69
2022/09/12 02:04:26;;;;;;;3.33;3.13;;;11.10;99.90;;;;;;478953;248;28510;-72
2022/09/12 02:06:28;;;;;;;3.30;3.10;;;11.10;99.90;;;;;;478883;248;28409;-68
2022/09/12 02:08:29;;;;;;;2.90;2.70;;;11.10;99.90;;;;;;478902;248;28490;-68
2022/09/12 02:10:30;;;;;;;3.30;3.10;;;11.10;99.90;;;;;;478888;248;27861;-68
2022/09/12 02:12:31;;;;;;;3.33;3.13;;;11.10;99.90;;;;;;478904;248;27940;-69
2022/09/12 02:14:33;;;;;;;3.33;3.13;;;11.10;99.90;;;;;;478964;248;28002;-71
2022/09/12 02:16:34;;;;;;;3.30;3.10;;;11.10;99.90;;;;;;478883;248;27991;-69
2022/09/12 02:18:35;;;;;;;3.43;3.13;;;11.10;99.90;;;;;;478950;248;28100;-69
2022/09/12 02:20:36;;;;;;;3.60;3.30;;;11.10;99.90;;;;;;478953;248;27643;-68
2022/09/12 02:22:38;;;;;;;3.30;3.10;;;11.00;99.90;;;;;;478906;246;27779;-70
2022/09/12 02:24:39;;;;;;;3.10;2.90;;;11.00;99.90;;;;;;478985;248;27764;-71
2022/09/12 02:26:41;;;;;;;3.00;2.80;;;11.00;99.90;;;;;;478810;248;27842;-69
2022/09/12 02:28:42;;;;;;;3.23;3.03;;;11.00;99.90;;;;;;478928;248;28469;-69
2022/09/12 02:30:43;;;;;;;3.57;3.37;;;11.00;99.90;;;;;;478935;248;28425;-68
2022/09/12 02:32:44;;;;;;;3.40;3.20;;;11.10;99.90;;;;;;478915;248;28411;-69
2022/09/12 02:34:48;;;;;;;3.77;3.50;;;11.00;99.90;;;;;;478796;248;27803;-68
2022/09/12 02:36:47;;;;;;;3.40;3.20;;;11.10;99.90;;;;;;478754;248;27863;-69
2022/09/12 02:38:48;;;;;;;3.63;3.33;;;11.10;99.90;;;;;;478871;248;27583;-71
2022/09/12 02:40:49;;;;;;;3.17;2.97;;;11.00;99.90;;;;;;478931;248;27999;-68
2022/09/12 02:42:50;;;;;;;5.07;3.17;;;11.00;99.90;;;;;;478922;247;27955;-69
2022/09/12 02:44:52;;;;;;;3.70;3.40;;;11.00;99.90;;;;;;478942;248;28058;-69
2022/09/12 02:46:53;;;;;;;4.17;3.77;;;11.00;99.90;;;;;;478894;248;27867;-68
2022/09/12 02:48:55;;;;;;;3.37;3.17;;;10.90;99.90;;;;;;478938;247;27983;-70
2022/09/12 02:50:55;;;;;;;3.10;2.90;;;10.90;99.90;;;;;;478919;248;27751;-69
2022/09/12 02:53:02;;;;;;;3.10;2.90;;;10.80;99.90;;;;;;478926;248;28445;-69
2022/09/12 02:54:58;;;;;;;3.40;3.10;;;10.80;99.90;;;;;;478503;248;29072;-68
2022/09/12 02:56:59;;;;;;;3.13;2.93;;;10.80;99.90;;;;;;478887;248;28385;-69
2022/09/12 02:59:00;;;;;;;3.40;3.20;;;10.80;99.90;;;;;;478931;248;28496;-70
2022/09/12 03:01:02;;;;;;;3.47;3.17;;;10.80;99.90;;;;;;478960;248;27733;-69
2022/09/12 03:03:03;;;;;;;3.30;3.10;;;10.80;99.90;;;;;;478957;248;27969;-69
2022/09/12 03:05:04;;;;;;;4.03;3.33;;;10.70;99.90;;;;;;478948;248;27737;-68
2022/09/12 03:07:05;;;;;;;3.30;3.10;;;10.70;99.90;;;;;;478925;247;27864;-68
2022/09/12 03:09:07;;;;;;;3.37;3.07;;;10.70;99.90;;;;;;478950;248;27978;-71
2022/09/12 03:11:08;;;;;;;3.33;3.13;;;10.70;99.90;;;;;;478979;248;27942;-68
2022/09/12 03:13:09;;;;;;;3.27;3.00;;;10.80;99.90;;;;;;478964;248;27900;-69
2022/09/12 03:15:10;;;;;;;3.43;3.23;;;10.80;99.90;;;;;;478937;248;27822;-68
2022/09/12 03:17:12;;;;;;;3.43;3.13;;;10.80;99.90;;;;;;478922;248;27846;-69
2022/09/12 03:19:13;;;;;;;4.00;3.70;;;10.80;99.90;;;;;;478971;248;28384;-71
2022/09/12 03:21:14;;;;;;;3.80;3.50;;;10.80;99.90;;;;;;478934;248;28449;-69
2022/09/12 03:23:15;;;;;;;3.27;3.07;;;10.80;99.90;;;;;;478954;248;28367;-69
2022/09/12 03:25:17;;;;;;;3.67;3.47;;;10.70;99.90;;;;;;478931;248;27777;-68
2022/09/12 03:27:18;;;;;;;3.37;3.17;;;10.70;99.90;;;;;;478904;248;27863;-68
2022/09/12 03:29:19;;;;;;;3.97;3.67;;;10.70;99.90;;;;;;478744;248;27901;-69
2022/09/12 03:31:20;;;;;;;3.13;2.93;;;10.70;99.90;;;;;;478750;248;27734;-68
2022/09/12 03:33:22;;;;;;;3.90;3.60;;;10.70;99.90;;;;;;478657;248;27916;-68
2022/09/12 03:35:23;;;;;;;3.20;3.00;;;10.60;99.90;;;;;;478833;248;27867;-72
2022/09/12 03:37:24;;;;;;;3.90;3.60;;;10.50;99.90;;;;;;478902;248;27863;-69
2022/09/12 03:39:26;;;;;;;3.50;3.20;;;10.50;99.90;;;;;;478940;248;27560;-69
2022/09/12 03:41:27;;;;;;;3.60;3.30;;;10.50;99.90;;;;;;478890;248;27998;-68
2022/09/12 03:43:28;;;;;;;4.77;3.10;;;10.50;99.90;;;;;;478907;248;28263;-69
2022/09/12 03:45:29;;;;;;;3.43;3.23;;;10.60;99.90;;;;;;478963;248;28399;-72
2022/09/12 03:47:30;;;;;;;3.40;3.20;;;10.60;99.90;;;;;;478880;248;28525;-68
2022/09/12 03:49:32;;;;;;;3.80;3.47;;;10.50;99.90;;;;;;478954;248;28481;-69
2022/09/12 03:51:33;;;;;;;3.60;3.30;;;10.60;99.90;;;;;;478928;248;27685;-69
2022/09/12 03:53:34;;;;;;;3.50;3.20;;;10.60;99.90;;;;;;478935;248;27634;-69
2022/09/12 03:55:35;;;;;;;3.40;3.20;;;10.60;99.90;;;;;;478946;248;27643;-71
2022/09/12 03:57:37;;;;;;;3.70;3.40;;;10.50;99.90;;;;;;478882;248;27517;-68
2022/09/12 03:59:38;;;;;;;3.53;3.33;;;10.50;99.90;;;;;;478906;248;28014;-70
2022/09/12 04:01:40;;;;;;;3.80;3.50;;;10.50;99.90;;;;;;478934;246;28076;-68
2022/09/12 04:03:40;;;;;;;4.50;4.10;;;10.40;99.90;;;;;;478862;248;28127;-68
2022/09/12 04:05:42;;;;;;;5.33;4.47;;;10.30;99.90;;;;;;478973;247;27874;-71
2022/09/12 04:07:43;;;;;;;4.50;4.10;;;10.40;99.90;;;;;;478879;248;27723;-69
2022/09/12 04:09:44;;;;;;;3.83;3.53;;;10.50;99.90;;;;;;478953;248;28419;-71
2022/09/12 04:11:45;;;;;;;4.40;4.10;;;10.50;99.90;;;;;;478961;248;28495;-69
2022/09/12 04:13:47;;;;;;;4.10;3.73;;;10.50;99.90;;;;;;478942;248;27891;-68
2022/09/12 04:15:48;;;;;;;4.27;3.90;;;10.50;99.90;;;;;;478978;248;27925;-68
2022/09/12 04:17:49;;;;;;;4.50;4.10;;;10.50;99.90;;;;;;478901;248;27976;-68
2022/09/12 04:19:50;;;;;;;3.90;3.60;;;10.50;99.90;;;;;;478957;248;27670;-70
2022/09/12 04:21:52;;;;;;;3.80;3.50;;;10.50;99.90;;;;;;478951;248;27904;-68
2022/09/12 04:23:53;;;;;;;4.30;3.90;;;10.40;99.90;;;;;;478943;248;27635;-69
2022/09/12 04:25:54;;;;;;;4.03;3.73;;;10.40;99.90;;;;;;478954;248;27890;-68
2022/09/12 04:27:55;;;;;;;4.20;3.90;;;10.30;99.90;;;;;;478885;248;27736;-69
2022/09/12 04:29:57;;;;;;;4.03;3.73;;;10.40;99.90;;;;;;478970;248;27664;-69
2022/09/12 04:31:58;;;;;;;3.83;3.53;;;10.40;99.90;;;;;;478863;248;27952;-68
2022/09/12 04:33:59;;;;;;;4.63;4.23;;;10.40;99.90;;;;;;478967;248;28498;-68
2022/09/12 04:36:00;;;;;;;4.77;4.37;;;10.40;99.90;;;;;;478956;248;29192;-68
2022/09/12 04:38:02;;;;;;;4.50;4.10;;;10.40;99.90;;;;;;478934;248;28414;-69
2022/09/12 04:40:03;;;;;;;4.40;4.00;;;10.30;99.90;;;;;;478943;248;27912;-70
2022/09/12 04:42:04;;;;;;;4.17;3.80;;;10.30;99.90;;;;;;478935;248;27839;-68
2022/09/12 04:44:05;;;;;;;4.40;4.10;;;10.30;99.90;;;;;;478964;248;27939;-68
2022/09/12 04:46:07;;;;;;;4.30;3.90;;;10.30;99.90;;;;;;478875;248;27740;-72
2022/09/12 04:48:08;;;;;;;4.50;3.90;;;10.30;99.90;;;;;;478954;248;27824;-68
2022/09/12 04:50:09;;;;;;;4.00;3.70;;;10.40;99.90;;;;;;478936;248;28002;-71
2022/09/12 04:52:10;;;;;;;4.00;3.70;;;10.30;99.90;;;;;;478961;248;27514;-68
2022/09/12 04:54:12;;;;;;;4.47;3.63;;;10.30;99.90;;;;;;478953;248;27806;-69
2022/09/12 04:56:13;;;;;;;3.83;3.53;;;10.30;99.90;;;;;;478847;248;28238;-68
2022/09/12 04:58:14;;;;;;;4.00;3.70;;;10.30;99.90;;;;;;478930;248;28388;-69
2022/09/12 05:00:15;;;;;;;4.73;4.30;;;10.30;99.90;;;;;;478969;248;28391;-71
2022/09/12 05:02:17;;;;;;;4.67;4.10;;;10.30;99.90;;;;;;478820;248;28788;-69
2022/09/12 05:04:18;;;;;;;4.77;4.37;;;10.30;99.90;;;;;;478944;247;28383;-69
2022/09/12 05:06:19;;;;;;;5.67;4.43;;;10.30;99.90;;;;;;478861;248;27524;-68
2022/09/12 05:08:20;;;;;;;4.73;4.33;;;10.30;99.90;;;;;;478935;248;27780;-68
2022/09/12 05:10:22;;;;;;;4.30;3.90;;;10.30;99.90;;;;;;478956;248;27907;-71
2022/09/12 05:12:23;;;;;;;5.07;4.50;;;10.40;99.90;;;;;;478934;248;27968;-68
2022/09/12 05:14:24;;;;;;;4.17;3.87;;;10.40;99.90;;;;;;478933;247;28035;-69
2022/09/12 05:16:25;;;;;;;4.40;4.00;;;10.40;99.90;;;;;;478854;248;27867;-68
2022/09/12 05:18:27;;;;;;;5.30;4.80;;;10.40;99.90;;;;;;478944;248;27982;-69
2022/09/12 05:20:28;;;;;;;5.00;4.60;;;10.40;99.90;;;;;;478959;248;27775;-70
2022/09/12 05:22:29;;;;;;;5.17;4.63;;;10.40;99.90;;;;;;478914;248;27763;-68
2022/09/12 05:24:31;;;;;;;5.10;4.70;;;10.40;99.90;;;;;;478941;248;28238;-69
2022/09/12 05:26:32;;;;;;;4.57;4.17;;;10.40;99.90;;;;;;478854;248;28297;-69
2022/09/12 05:28:33;;;;;;;3.97;3.67;;;10.50;99.90;;;;;;478910;248;27970;-68
2022/09/12 05:30:34;;;;;;;4.63;4.17;;;10.50;99.90;;;;;;478967;248;27864;-70
2022/09/12 05:32:35;;;;;;;4.27;3.97;;;10.50;99.90;;;;;;478964;248;28035;-68
2022/09/12 05:34:37;;;;;;;4.03;3.73;;;10.60;99.90;;;;;;478915;248;28067;-69
2022/09/12 05:36:38;;;;;;;4.57;4.17;;;10.60;99.90;;;;;;478878;246;27861;-68
2022/09/12 05:38:39;;;;;;;5.10;4.60;;;10.60;99.90;;;;;;478944;248;27934;-68
2022/09/12 05:40:40;;;;;;;5.07;4.57;;;10.60;99.90;;;;;;478959;248;27760;-72
2022/09/12 05:42:42;;;;;;;4.70;4.30;;;10.60;99.90;;;;;;478961;248;27872;-69
2022/09/12 05:44:43;;;;;;;5.10;4.60;;;10.50;99.90;;;;;;478973;248;27578;-69
2022/09/12 05:46:47;;;;;;;4.07;3.77;;;10.60;99.90;;;;;;478856;248;27953;-69
2022/09/12 05:48:45;;;;;;;4.23;3.83;;;10.60;99.90;;;;;;478792;248;28273;-69
2022/09/12 05:50:47;;;;;;;4.40;4.10;;;10.70;99.90;;;;;;478992;247;28473;-71
2022/09/12 05:52:49;;;;;;;4.37;4.00;;;10.80;99.90;;;;;;478969;248;28542;-68
2022/09/12 05:54:49;;;;;;;4.10;3.80;;;10.80;99.90;;;;;;478891;248;28426;-69
2022/09/12 05:56:50;;;;;;;4.63;4.23;;;10.80;99.90;;;;;;478857;246;27943;-68
2022/09/12 05:58:52;;;;;;;4.50;4.13;;;10.80;99.90;;;;;;478917;248;28084;-68
2022/09/12 06:00:53;;;;;;;3.87;3.57;;;10.90;99.90;;;;;;478986;248;28021;-73
2022/09/12 06:02:54;;;;;;;6.17;4.07;;;10.90;99.90;;;;;;478975;248;28090;-69
2022/09/12 06:04:56;;;;;;;4.07;3.77;;;11.00;99.90;;;;;;478954;248;28064;-70
2022/09/12 06:06:57;;;;;;;4.03;3.73;;;11.00;99.90;;;;;;478872;248;27978;-68
2022/09/12 06:08:58;;;;;;;3.90;3.60;;;11.10;99.90;;;;;;478935;248;27869;-68
2022/09/12 06:10:59;;;;;;;3.70;3.40;;;11.20;99.90;;;;;;478949;248;27930;-74
2022/09/12 06:13:02;;;;;;;4.00;3.70;;;11.20;99.90;;;;;;478954;248;28429;-69
2022/09/12 06:15:02;;;;;;;3.50;3.30;;;11.30;99.90;;;;;;478864;248;28507;-70
2022/09/12 06:17:04;;;;;;;3.97;3.67;;;11.40;99.90;;;;;;478846;248;28543;-68
2022/09/12 06:19:05;;;;;;;4.13;3.83;;;11.40;99.90;;;;;;478883;248;28716;-69
2022/09/12 06:21:05;;;;;;;4.40;4.10;;;11.40;99.90;;;;;;478941;248;28134;-72
2022/09/12 06:23:07;;;;;;;4.30;4.00;;;11.50;99.90;;;;;;478934;248;27950;-69
2022/09/12 06:25:08;;;;;;;4.33;3.97;;;11.50;99.90;;;;;;478927;248;27894;-69
2022/09/12 06:27:09;;;;;;;4.27;3.87;;;11.50;99.90;;;;;;478817;248;27903;-69
2022/09/12 06:29:10;;;;;;;4.30;3.63;;;11.60;99.90;;;;;;478915;248;28277;-69
2022/09/12 06:31:12;;;;;;;4.40;4.10;;;11.60;99.90;;;;;;478961;248;28122;-71
2022/09/12 06:33:13;;;;;;;3.60;3.30;;;11.70;99.90;;;;;;478943;246;27973;-68
2022/09/12 06:35:14;;;;;;;3.83;3.53;;;11.70;99.90;;;;;;478962;246;28241;-70
2022/09/12 06:37:16;;;;;;;3.90;3.60;;;11.70;99.90;;;;;;478902;248;27952;-68
2022/09/12 06:39:17;;;;;;;4.63;4.23;;;11.80;99.90;;;;;;478917;247;28258;-69
2022/09/12 06:41:18;;;;;;;4.27;3.97;;;11.80;99.90;;;;;;478984;248;28226;-72
2022/09/12 06:43:19;;;;;;;3.93;3.63;;;11.90;99.90;;;;;;478942;248;28219;-68
2022/09/12 06:45:21;;;;;;;4.20;3.80;;;11.90;99.90;;;;;;478970;248;28119;-70
2022/09/12 06:47:22;;;;;;;3.60;3.40;;;12.00;99.90;;;;;;478887;248;28042;-69
2022/09/12 06:49:23;;;;;;;3.27;3.07;;;12.10;99.90;;;;;;478927;248;28448;-69
2022/09/12 06:51:25;;;;;;;3.40;3.20;;;12.20;99.90;;;;;;478980;248;28702;-71
2022/09/12 06:53:26;;;;;;;3.87;3.57;;;12.20;99.90;;;;;;478975;248;28534;-68
2022/09/12 06:55:27;;;;;;;3.67;3.37;;;12.30;99.90;;;;;;478956;248;28572;-69
2022/09/12 06:57:30;;;;;;;4.07;3.77;;;12.30;99.90;;;;;;478909;248;28132;-69
2022/09/12 06:59:29;;;;;;;4.00;3.70;;;12.40;99.90;;;;;;478844;248;28268;-69
2022/09/12 07:01:31;;;;;;;3.40;3.20;;;12.50;99.90;;;;;;478987;246;28248;-71
2022/09/12 07:03:32;;;;;;;3.80;3.47;;;12.60;99.90;;;;;;478984;248;28083;-69
2022/09/12 07:05:33;;;;;;;3.90;3.60;;;12.80;99.90;;;;;;478956;247;28368;-70
2022/09/12 07:07:34;;;;;;;4.53;4.13;;;13.20;99.90;;;;;;478826;246;28190;-69
2022/09/12 07:09:36;;;;;;;4.70;4.30;;;13.30;99.90;;;;;;478955;248;28430;-69
2022/09/12 07:11:37;;;;;;;4.17;3.87;;;13.40;99.90;;;;;;478992;248;28225;-72
2022/09/12 07:13:38;;;;;;;4.77;4.37;;;13.50;99.90;;;;;;478951;248;28330;-69
2022/09/12 07:15:39;;;;;;;4.47;4.10;;;13.60;99.90;;;;;;478972;248;27991;-69
2022/09/12 07:17:41;;;;;;;4.97;4.50;;;13.70;99.90;;;;;;478877;248;28293;-69
2022/09/12 07:19:42;;;;;;;5.00;4.60;;;13.90;99.90;;;;;;478945;248;28261;-69
2022/09/12 07:21:43;;;;;;;5.17;4.67;;;14.10;99.90;;;;;;478981;248;28242;-73
2022/09/12 07:23:45;;;;;;;4.80;4.40;;;14.40;99.90;;;;;;478957;246;28794;-69
2022/09/12 07:25:46;;;;;;;4.80;4.40;;;14.60;99.90;;;;;;478936;248;28327;-70
2022/09/12 07:27:47;;;;;;;5.67;5.17;;;14.60;99.90;;;;;;478882;248;28182;-70
2022/09/12 07:29:48;;;;;;;5.00;4.53;;;14.70;99.90;;;;;;478979;248;28166;-69
2022/09/12 07:31:50;;;;;;;4.77;4.37;;;14.80;99.90;;;;;;478964;248;28693;-70
2022/09/12 07:33:51;;;;;;;5.23;4.83;;;14.70;99.90;;;;;;478918;248;28543;-69
2022/09/12 07:35:55;;;;;;;5.40;4.90;;;14.70;99.90;;;;;;478944;246;28231;-68
2022/09/12 07:37:53;;;;;;;4.60;4.20;;;14.60;99.90;;;;;;478810;248;28192;-69
2022/09/12 07:39:55;;;;;;;4.80;4.40;;;14.70;99.90;;;;;;478973;248;28264;-69
2022/09/12 07:41:56;;;;;;;5.70;5.10;;;14.90;99.90;;;;;;478965;248;28269;-71
2022/09/12 07:43:57;;;;;;;5.17;4.77;;;15.10;99.90;;;;;;478953;247;28001;-69
2022/09/12 07:45:58;;;;;;;5.57;5.17;;;15.20;99.90;;;;;;478958;248;28324;-69
2022/09/12 07:48:00;;;;;;;7.90;5.30;;;15.60;99.90;;;;;;478794;247;28259;-72
2022/09/12 07:50:01;;;;;;;6.43;5.60;;;15.80;99.90;;;;;;478933;248;28073;-69
2022/09/12 07:52:02;;;;;;;5.33;4.93;;;15.90;99.90;;;;;;478919;247;28457;-70
2022/09/12 07:54:04;;;;;;;5.40;5.00;;;15.90;99.90;;;;;;478948;248;28599;-70
2022/09/12 07:56:05;;;;;;;5.83;5.33;;;15.80;99.90;;;;;;478900;248;28367;-70
2022/09/12 07:58:06;;;;;;;5.63;5.13;;;15.80;99.90;;;;;;478918;248;28751;-72
2022/09/12 08:00:07;;;;;;;5.80;5.30;;;15.90;99.90;;;;;;478934;246;28826;-69
2022/09/12 08:02:09;;;;;;;5.80;5.30;;;16.00;99.90;;;;;;478949;248;28471;-70
2022/09/12 08:04:10;;;;;;;5.33;4.83;;;16.20;99.90;;;;;;478937;248;28767;-69
2022/09/12 08:06:11;;;;;;;6.27;5.77;;;16.30;99.90;;;;;;478860;248;28733;-69
2022/09/12 08:08:12;;;;;;;6.77;6.10;;;16.40;99.90;;;;;;478913;248;28461;-71
2022/09/12 08:10:15;;;;;;;5.50;5.10;;;16.40;99.90;;;;;;478938;248;28733;-69
2022/09/12 08:12:15;;;;;;;5.80;5.30;;;16.70;99.90;;;;;;478904;248;28809;-69
2022/09/12 08:14:16;;;;;;;6.43;5.73;;;16.60;99.90;;;;;;478926;248;28767;-69
2022/09/12 08:16:17;;;;;;;5.47;4.97;;;16.60;99.90;;;;;;478843;248;28786;-69
2022/09/12 08:18:19;;;;;;;5.13;4.73;;;16.60;99.90;;;;;;478956;247;28845;-72
2022/09/12 08:20:20;;;;;;;5.10;4.70;;;16.60;99.90;;;;;;478947;248;28846;-70
2022/09/12 08:22:21;;;;;;;5.63;5.13;;;16.80;99.90;;;;;;478923;248;28791;-69
2022/09/12 08:24:23;;;;;;;5.10;4.70;;;16.90;99.90;;;;;;478953;246;28814;-69
2022/09/12 08:26:24;;;;;;;5.03;4.63;;;17.10;99.90;;;;;;478885;248;29193;-70
2022/09/12 08:28:25;;;;;;;5.43;5.00;;;17.00;99.90;;;;;;478963;248;29223;-71
2022/09/12 08:30:26;;;;;;;5.03;4.63;;;17.40;99.90;;;;;;478955;248;29275;-70
2022/09/12 08:32:27;;;;;;;4.47;4.10;;;17.40;99.90;;;;;;478959;248;29325;-69
2022/09/12 08:34:29;;;;;;;5.40;4.90;;;17.20;99.90;;;;;;478912;248;29016;-70
2022/09/12 08:36:30;;;;;;;5.30;4.90;;;17.40;99.90;;;;;;478764;248;28753;-70
2022/09/12 08:38:31;;;;;;;5.40;4.90;;;17.30;99.90;;;;;;478968;246;28755;-71
2022/09/12 08:40:32;;;;;;;5.37;4.33;;;17.40;99.90;;;;;;478953;248;28797;-69
2022/09/12 08:42:34;;;;;;;5.47;5.03;;;17.50;99.90;;;;;;478958;248;28748;-70
2022/09/12 08:44:35;;;;;;;5.03;4.63;;;17.80;99.90;;;;;;478930;248;28821;-69
2022/09/12 08:46:36;;;;;;;5.17;4.77;;;17.70;99.90;;;;;;478904;248;28760;-69
2022/09/12 08:48:37;;;;;;;4.67;4.30;;;17.70;99.90;;;;;;478977;248;28836;-72
2022/09/12 08:50:43;;;;;;;5.03;4.50;;;17.70;99.90;;;;;;478956;248;28723;-69
2022/09/12 08:52:40;;;;;;;5.00;4.60;;;17.70;99.90;;;;;;478664;248;29313;-70
2022/09/12 08:54:41;;;;;;;4.30;4.00;;;17.60;99.90;;;;;;478941;248;29188;-69
2022/09/12 08:56:42;;;;;;;4.00;3.70;;;17.50;99.90;;;;;;478925;248;29176;-70
2022/09/12 08:58:44;;;;;;;4.30;4.00;;;17.60;99.90;;;;;;478968;248;28772;-71
2022/09/12 09:00:45;;;;;;;3.90;3.70;;;17.50;99.90;;;;;;478951;246;29211;-69
2022/09/12 09:02:47;;;;;;;4.67;4.27;;;17.60;99.90;;;;;;478935;248;29231;-70
2022/09/12 09:04:48;;;;;;;6.77;3.93;;;17.70;99.90;;;;;;478936;248;30084;-69
2022/09/12 09:06:49;;;;;;;4.40;4.10;;;18.00;99.90;;;;;;478870;247;29219;-70
2022/09/12 09:08:50;;;;;;;5.17;4.67;;;18.10;99.90;;;;;;478961;248;28792;-71
2022/09/12 09:10:51;;;;;;;4.30;4.00;;;18.30;99.90;;;;;;478937;248;28792;-69
2022/09/12 09:12:53;;;;;;;4.67;4.27;;;18.40;99.90;;;;;;478928;248;28779;-70
2022/09/12 09:14:54;;;;;;;4.50;4.20;;;18.50;99.90;;;;;;478925;248;28791;-69
2022/09/12 09:16:55;;;;;;;4.43;4.13;;;18.60;99.90;;;;;;478912;248;28788;-70
2022/09/12 09:18:56;;;;;;;6.93;4.57;;;18.50;99.90;;;;;;478957;248;28855;-72
2022/09/12 09:20:58;;;;;;;4.40;4.03;;;18.60;99.90;;;;;;478916;248;28719;-69
2022/09/12 09:22:59;;;;;;;4.30;4.00;;;18.60;99.90;;;;;;478916;248;28752;-70
2022/09/12 09:25:00;;;;;;;4.27;3.87;;;18.60;99.90;;;;;;478955;248;29149;-72
2022/09/12 09:27:01;;;;;;;4.00;3.70;;;18.60;99.90;;;;;;478862;248;28729;-70
2022/09/12 09:29:03;;;;;;;3.50;3.30;;;18.70;99.90;;;;;;478884;248;29313;-70
2022/09/12 09:31:05;;;;;;;3.63;3.43;;;18.70;99.90;;;;;;478875;248;29169;-69
2022/09/12 09:33:05;;;;;;;3.47;3.27;;;18.80;99.90;;;;;;478814;248;29250;-70
2022/09/12 09:35:06;;;;;;;3.30;3.10;;;18.90;99.90;;;;;;478950;248;29352;-72
2022/09/12 09:37:08;;;;;;;3.57;3.30;;;18.80;99.90;;;;;;478876;248;28705;-69
2022/09/12 09:39:09;;;;;;;3.23;3.03;;;18.90;99.90;;;;;;478913;248;28788;-71
2022/09/12 09:41:10;;;;;;;3.03;2.83;;;19.00;99.90;;;;;;478897;247;28834;-69
2022/09/12 09:43:12;;;;;;;3.17;2.97;;;19.00;99.90;;;;;;478912;248;28809;-69
2022/09/12 09:45:14;;;;;;;3.20;3.00;;;19.00;99.90;;;;;;478981;247;28849;-73
2022/09/12 09:47:14;;;;;;;2.80;2.60;;;19.00;99.90;;;;;;478857;248;28727;-69
2022/09/12 09:49:15;;;;;;;2.70;2.60;;;18.90;99.90;;;;;;478962;248;28844;-69
2022/09/12 09:51:16;;;;;;;2.70;2.50;;;19.00;99.90;;;;;;478934;246;28817;-70
2022/09/12 09:53:18;;;;;;;2.77;2.57;;;19.10;99.90;;;;;;478933;248;29230;-70
2022/09/12 09:55:19;;;;;;;2.70;2.50;;;19.20;99.90;;;;;;478971;248;29413;-73
2022/09/12 09:57:20;;;;;;;2.33;2.23;;;19.20;99.90;;;;;;478901;248;28774;-69
2022/09/12 09:59:22;;;;;;;2.33;2.23;;;19.20;99.90;;;;;;478950;248;28822;-70
2022/09/12 10:01:23;;;;;;;2.60;2.40;;;19.20;99.90;;;;;;478924;246;28731;-69
2022/09/12 10:03:25;;;;;;;2.50;2.40;;;19.10;99.90;;;;;;478942;248;28728;-69
2022/09/12 10:05:27;;;;;;;2.40;2.30;;;19.10;99.90;;;;;;478943;248;28854;-74
2022/09/12 10:07:27;;;;;;;2.47;2.37;;;19.00;99.90;;;;;;478836;248;28720;-69
2022/09/12 10:09:28;;;;;;;2.50;2.30;;;19.20;99.90;;;;;;478968;248;28751;-70
2022/09/12 10:11:29;;;;;;;2.37;2.27;;;19.20;99.90;;;;;;478958;248;28798;-69
2022/09/12 10:13:30;;;;;;;2.87;2.67;;;19.20;99.90;;;;;;478978;248;28778;-70
2022/09/12 10:15:33;;;;;;;2.50;2.40;;;19.10;99.90;;;;;;478972;248;28746;-73
2022/09/12 10:17:33;;;;;;;2.67;2.50;;;19.10;99.90;;;;;;478820;248;28786;-70
2022/09/12 10:19:34;;;;;;;2.40;2.30;;;19.20;99.90;;;;;;478976;248;28746;-70
2022/09/12 10:21:36;;;;;;;2.87;2.60;;;19.10;99.90;;;;;;478974;248;28713;-69
2022/09/12 10:23:39;;;;;;;2.73;2.53;;;19.10;99.90;;;;;;479007;248;28734;-69
2022/09/12 10:25:39;;;;;;;2.43;2.33;;;19.20;99.90;;;;;;478875;248;28755;-71
2022/09/12 10:27:39;;;;;;;2.67;2.47;;;19.30;99.90;;;;;;478916;248;28711;-69
2022/09/12 10:29:47;;;;;;;2.60;2.50;;;19.50;99.90;;;;;;478953;248;28758;-70
2022/09/12 10:31:42;;;;;;;2.87;2.67;;;19.50;99.90;;;;;;478523;248;28736;-69